Paradise Creek — WDH2086 — position and weather

sailwx.info

Track history (hours):
 
Tides and Currents Weather Stations Pressure Air Temp Water Temp Dewpoint Dewpoint Depression Visibility Wind Speed Wind Dir Waves Ship Positions

Paradise Creek

Owner: Vane Line Bunkering, Inc, Philadelphia, PA. More information available from US FCC via Universal Licensing System.

Last reported at 2017-Dec-11 17:00 UTC. Time now 2017-Dec-13 14:39 UTC.
Position N 36°50' W 076°16'.

Length 22 m; draft 4 m.

Type: Towing. MMSI: 367594250.

Date/timePositionNaut miles runAvg speedWind from/ knotsBaromVisibWave heightAir tempDewpointWater temp
2017-Dec-11 17:00N 36°50' W 076°16'0 0.0
2017-Dec-11 16:19N 36°50' W 076°16'0 0.0
2017-Dec-11 15:58N 36°50' W 076°16'0 0.0
2017-Dec-11 15:30N 36°50' W 076°16'0 0.0
2017-Dec-11 15:00N 36°50' W 076°16'0 0.0
2017-Dec-11 14:30N 36°50' W 076°16'0 0.0
2017-Dec-11 12:49N 36°50' W 076°16'0 0.0
2017-Dec-11 12:30N 36°50' W 076°16'0 0.0
2017-Dec-11 12:00N 36°50' W 076°16'0 0.0
2017-Dec-11 11:31N 36°50' W 076°16'0 0.0
2017-Dec-11 11:01N 36°50' W 076°16'0 0.0
2017-Dec-11 10:31N 36°50' W 076°16'0 0.0
2017-Dec-11 10:00N 36°50' W 076°16'0 0.0
2017-Dec-11 09:31N 36°50' W 076°16'0 0.0
2017-Dec-11 09:00N 36°50' W 076°16'0 0.0
2017-Dec-11 08:31N 36°50' W 076°16'0 0.0
2017-Dec-11 08:01N 36°50' W 076°16'0 0.0
2017-Dec-11 07:30N 36°50' W 076°16'0 0.0
2017-Dec-11 07:01N 36°50' W 076°16'0 0.0
2017-Dec-11 06:31N 36°50' W 076°16'0 0.0
2017-Dec-11 06:01N 36°50' W 076°16'0 0.0
2017-Dec-11 05:31N 36°50' W 076°16'0 0.0
2017-Dec-11 05:00N 36°50' W 076°16'0 0.0
2017-Dec-11 04:31N 36°50' W 076°16'0 0.0
2017-Dec-11 04:00N 36°50' W 076°16'0 0.0
2017-Dec-11 03:30N 36°50' W 076°16'0 0.0
2017-Dec-11 03:00N 36°50' W 076°16'0 0.0
2017-Dec-11 02:31N 36°50' W 076°16'0 0.0
2017-Dec-11 02:01N 36°50' W 076°16'0 0.0
2017-Dec-11 01:31N 36°50' W 076°16'0 0.0
2017-Dec-11 01:01N 36°50' W 076°16'0 0.0
2017-Dec-11 00:30N 36°50' W 076°16'0 0.0
2017-Dec-11 00:01N 36°50' W 076°16'0 0.0
2017-Dec-10 23:29N 36°50' W 076°16'0 0.0
2017-Dec-10 23:01N 36°50' W 076°16'0 0.0
2017-Dec-10 22:30N 36°50' W 076°16'0 0.0
2017-Dec-10 22:00N 36°50' W 076°16'0 0.0
2017-Dec-10 21:30N 36°50' W 076°16'0 0.0
2017-Dec-10 21:01N 36°50' W 076°16'0 0.0
2017-Dec-10 20:31N 36°50' W 076°16'0 0.0
2017-Dec-10 20:01N 36°50' W 076°16'0 0.0
2017-Dec-10 19:30N 36°50' W 076°16'0 0.0
2017-Dec-10 19:01N 36°50' W 076°16'0 0.0
2017-Dec-10 18:17N 36°50' W 076°16'0 0.0
2017-Dec-10 18:00N 36°50' W 076°16'0 0.0
2017-Dec-10 17:31N 36°50' W 076°16'1 2.5
2017-Dec-10 17:01N 36°49' W 076°17'1 1.7
2017-Dec-10 16:31N 36°48' W 076°17'4 7.2
2017-Dec-10 16:00N 36°52' W 076°19'4 1.6
2017-Dec-10 13:21N 36°56' W 076°20'3 8.3
2017-Dec-10 13:01N 36°53' W 076°20'4 7.7
2017-Dec-10 12:31N 36°50' W 076°18'3 6.3
2017-Dec-10 12:01N 36°47' W 076°18'0 0.0
2017-Dec-10 11:31N 36°47' W 076°18'0 0.0
2017-Dec-10 11:01N 36°47' W 076°18'1 2.8
2017-Dec-10 10:30N 36°48' W 076°18'0 0.3
2017-Dec-10 10:01N 36°48' W 076°18'0 0.2
2017-Dec-10 09:31N 36°48' W 076°18'0 0.0
2017-Dec-10 09:00N 36°48' W 076°18'0 0.0
2017-Dec-10 08:31N 36°48' W 076°18'0 0.0
2017-Dec-10 08:01N 36°48' W 076°18'0 0.0
2017-Dec-10 07:31N 36°48' W 076°18'0 0.0
2017-Dec-10 07:01N 36°48' W 076°18'0 0.0
2017-Dec-10 06:31N 36°48' W 076°18'0 0.0
2017-Dec-10 06:00N 36°48' W 076°18'0 0.0
2017-Dec-10 05:30N 36°48' W 076°18'0 0.0
2017-Dec-10 05:01N 36°48' W 076°18'0 0.0
2017-Dec-10 04:31N 36°48' W 076°18'0 0.0
2017-Dec-10 04:00N 36°48' W 076°18'0 0.0
2017-Dec-10 03:30N 36°48' W 076°18'0 0.0
2017-Dec-10 03:01N 36°48' W 076°18'0 0.0
2017-Dec-10 02:31N 36°48' W 076°18'0 0.0
2017-Dec-10 02:01N 36°48' W 076°18'0 0.0
2017-Dec-10 01:30N 36°48' W 076°18'0 0.1
2017-Dec-10 01:01N 36°48' W 076°18'1 2.8
2017-Dec-10 00:31N 36°49' W 076°17'3 5.3
2017-Dec-09 23:58N 36°52' W 076°19'2 0.1
2017-Dec-08 05:50N 36°54' W 076°20'3 7.8
2017-Dec-08 05:30N 36°52' W 076°19'4 7.3
2017-Dec-08 05:00N 36°48' W 076°17'0 0.7
2017-Dec-08 04:30N 36°48' W 076°18'0 0.0
2017-Dec-08 04:00N 36°48' W 076°18'0 0.0
2017-Dec-08 03:30N 36°48' W 076°18'0 0.0
2017-Dec-08 03:00N 36°48' W 076°18'0 0.0
2017-Dec-08 02:30N 36°48' W 076°18'0 0.0
2017-Dec-08 02:00N 36°48' W 076°18'0 0.0
2017-Dec-08 01:30N 36°48' W 076°18'0 0.0
2017-Dec-08 01:00N 36°48' W 076°18'0 0.0
2017-Dec-08 00:30N 36°48' W 076°18'0 0.0
2017-Dec-08 00:00N 36°48' W 076°18'0 0.0
2017-Dec-07 23:30N 36°48' W 076°18'0 0.0
2017-Dec-07 23:00N 36°48' W 076°18'0 0.0
2017-Dec-07 22:30N 36°48' W 076°18'0 0.0
2017-Dec-07 22:00N 36°48' W 076°18'0 0.0
2017-Dec-07 21:30N 36°48' W 076°18'0 0.0
2017-Dec-07 21:00N 36°48' W 076°18'0 0.0
2017-Dec-07 20:30N 36°48' W 076°18'0 0.0
2017-Dec-07 20:00N 36°48' W 076°18'0 0.0
2017-Dec-07 19:30N 36°48' W 076°18'0 0.0
2017-Dec-07 19:00N 36°48' W 076°18'0 0.0
2017-Dec-07 18:30N 36°48' W 076°18'0 0.0
2017-Dec-07 18:00N 36°48' W 076°18'0 0.0
2017-Dec-07 17:30N 36°48' W 076°18'0 0.0
2017-Dec-07 17:00N 36°48' W 076°18'0 0.0
2017-Dec-07 16:30N 36°48' W 076°18'0 0.0
2017-Dec-07 16:00N 36°48' W 076°18'0 0.0
2017-Dec-07 15:30N 36°48' W 076°18'0 0.0
2017-Dec-07 15:00N 36°48' W 076°18'0 0.0
2017-Dec-07 14:30N 36°48' W 076°18'0 0.0
2017-Dec-07 14:00N 36°48' W 076°18'0 0.0
2017-Dec-07 13:30N 36°48' W 076°18'0 0.0
2017-Dec-07 13:00N 36°48' W 076°18'0 0.0
2017-Dec-07 12:30N 36°48' W 076°18'0 0.0
2017-Dec-07 12:00N 36°48' W 076°18'0 0.0
2017-Dec-07 11:30N 36°48' W 076°18'0 0.0
2017-Dec-07 11:00N 36°48' W 076°18'0 0.0
2017-Dec-07 10:30N 36°48' W 076°18'0 0.0
2017-Dec-07 10:00N 36°48' W 076°18'0 0.0
2017-Dec-07 09:30N 36°48' W 076°18'0 0.0
2017-Dec-07 09:00N 36°48' W 076°18'0 0.0
2017-Dec-07 08:30N 36°48' W 076°18'0 0.0
2017-Dec-07 08:00N 36°48' W 076°18'0 0.0
2017-Dec-07 07:30N 36°48' W 076°18'0 0.0
2017-Dec-07 07:00N 36°48' W 076°18'0 0.0
2017-Dec-07 06:30N 36°48' W 076°18'0 0.0
2017-Dec-07 06:00N 36°48' W 076°18'0 0.0
2017-Dec-07 05:30N 36°48' W 076°18'0 0.0
2017-Dec-07 05:00N 36°48' W 076°18'0 0.0
2017-Dec-07 04:30N 36°48' W 076°18'0 0.0
2017-Dec-07 04:00N 36°48' W 076°18'0 0.0
2017-Dec-07 03:30N 36°48' W 076°18'0 0.0
2017-Dec-07 03:00N 36°48' W 076°18'0 0.0
2017-Dec-07 02:30N 36°48' W 076°18'0 0.0
2017-Dec-07 02:00N 36°48' W 076°18'0 0.0
2017-Dec-07 01:30N 36°48' W 076°18'0 0.0
2017-Dec-07 01:00N 36°48' W 076°18'0 0.0
2017-Dec-07 00:30N 36°48' W 076°18'0 0.0
2017-Dec-07 00:00N 36°48' W 076°18'0 0.0
2017-Dec-06 23:30N 36°48' W 076°18'0 0.0
2017-Dec-06 23:00N 36°48' W 076°18'0 0.0
2017-Dec-06 22:30N 36°48' W 076°18'0 0.0
2017-Dec-06 22:00N 36°48' W 076°18'0 0.0
2017-Dec-06 21:30N 36°48' W 076°18'0 0.0
2017-Dec-06 21:00N 36°48' W 076°18'  
2017-Dec-02 04:04N 36°54' W 076°20'0 8.6
2017-Dec-02 04:00N 36°54' W 076°20'4 8.0
2017-Dec-02 03:30N 36°50' W 076°18'2 4.9
2017-Dec-02 03:00N 36°48' W 076°18'0 0.0
2017-Dec-02 02:30N 36°48' W 076°18'0 0.0
2017-Dec-02 02:00N 36°48' W 076°18'0 0.0
2017-Dec-02 01:30N 36°48' W 076°18'0 0.0
2017-Dec-02 01:00N 36°48' W 076°18'0 0.0
2017-Dec-02 00:30N 36°48' W 076°18'0 0.0
2017-Dec-02 00:00N 36°48' W 076°18'0 0.0
2017-Dec-01 23:30N 36°48' W 076°18'0 0.0
2017-Dec-01 23:00N 36°48' W 076°18'0 0.0
2017-Dec-01 22:30N 36°48' W 076°18'0 0.1
2017-Dec-01 22:00N 36°48' W 076°18'0 0.0
2017-Dec-01 21:30N 36°48' W 076°18'0 0.0
2017-Dec-01 21:00N 36°48' W 076°18'0 0.0
2017-Dec-01 20:30N 36°48' W 076°18'0 0.0
2017-Dec-01 20:00N 36°48' W 076°18'0 0.0
2017-Dec-01 19:30N 36°48' W 076°18'0 0.0
2017-Dec-01 19:00N 36°48' W 076°18'0 0.0
2017-Dec-01 18:30N 36°48' W 076°18'0 0.0
2017-Dec-01 18:00N 36°48' W 076°18'0 0.0
2017-Dec-01 17:30N 36°48' W 076°18'0 0.0
2017-Dec-01 17:00N 36°48' W 076°18'  
Track history (hours):
 
Tides and Currents Weather Stations Pressure Air Temp Water Temp Dewpoint Dewpoint Depression Visibility Wind Speed Wind Dir Waves Ship Positions

Paradise Creek

Owner: Vane Line Bunkering, Inc, Philadelphia, PA. More information available from US FCC via Universal Licensing System.

Last reported at 2017-Dec-11 17:00 UTC. Time now 2017-Dec-13 14:39 UTC.
Position N 36°50' W 076°16'.

Length 22 m; draft 4 m.

Type: Towing. MMSI: 367594250.

Date/timePositionNaut miles runAvg speedWind from/ knotsBaromVisibWave heightAir tempDewpointWater temp
2017-Dec-11 17:00N 36°50' W 076°16'0 0.0
2017-Dec-11 16:19N 36°50' W 076°16'0 0.0
2017-Dec-11 15:58N 36°50' W 076°16'0 0.0
2017-Dec-11 15:30N 36°50' W 076°16'0 0.0
2017-Dec-11 15:00N 36°50' W 076°16'0 0.0
2017-Dec-11 14:30N 36°50' W 076°16'0 0.0
2017-Dec-11 12:49N 36°50' W 076°16'0 0.0
2017-Dec-11 12:30N 36°50' W 076°16'0 0.0
2017-Dec-11 12:00N 36°50' W 076°16'0 0.0
2017-Dec-11 11:31N 36°50' W 076°16'0 0.0
2017-Dec-11 11:01N 36°50' W 076°16'0 0.0
2017-Dec-11 10:31N 36°50' W 076°16'0 0.0
2017-Dec-11 10:00N 36°50' W 076°16'0 0.0
2017-Dec-11 09:31N 36°50' W 076°16'0 0.0
2017-Dec-11 09:00N 36°50' W 076°16'0 0.0
2017-Dec-11 08:31N 36°50' W 076°16'0 0.0
2017-Dec-11 08:01N 36°50' W 076°16'0 0.0
2017-Dec-11 07:30N 36°50' W 076°16'0 0.0
2017-Dec-11 07:01N 36°50' W 076°16'0 0.0
2017-Dec-11 06:31N 36°50' W 076°16'0 0.0
2017-Dec-11 06:01N 36°50' W 076°16'0 0.0
2017-Dec-11 05:31N 36°50' W 076°16'0 0.0
2017-Dec-11 05:00N 36°50' W 076°16'0 0.0
2017-Dec-11 04:31N 36°50' W 076°16'0 0.0
2017-Dec-11 04:00N 36°50' W 076°16'0 0.0
2017-Dec-11 03:30N 36°50' W 076°16'0 0.0
2017-Dec-11 03:00N 36°50' W 076°16'0 0.0
2017-Dec-11 02:31N 36°50' W 076°16'0 0.0
2017-Dec-11 02:01N 36°50' W 076°16'0 0.0
2017-Dec-11 01:31N 36°50' W 076°16'0 0.0
2017-Dec-11 01:01N 36°50' W 076°16'0 0.0
2017-Dec-11 00:30N 36°50' W 076°16'0 0.0
2017-Dec-11 00:01N 36°50' W 076°16'0 0.0
2017-Dec-10 23:29N 36°50' W 076°16'0 0.0
2017-Dec-10 23:01N 36°50' W 076°16'0 0.0
2017-Dec-10 22:30N 36°50' W 076°16'0 0.0
2017-Dec-10 22:00N 36°50' W 076°16'0 0.0
2017-Dec-10 21:30N 36°50' W 076°16'0 0.0
2017-Dec-10 21:01N 36°50' W 076°16'0 0.0
2017-Dec-10 20:31N 36°50' W 076°16'0 0.0
2017-Dec-10 20:01N 36°50' W 076°16'0 0.0
2017-Dec-10 19:30N 36°50' W 076°16'0 0.0
2017-Dec-10 19:01N 36°50' W 076°16'0 0.0
2017-Dec-10 18:17N 36°50' W 076°16'0 0.0
2017-Dec-10 18:00N 36°50' W 076°16'0 0.0
2017-Dec-10 17:31N 36°50' W 076°16'1 2.5
2017-Dec-10 17:01N 36°49' W 076°17'1 1.7
2017-Dec-10 16:31N 36°48' W 076°17'4 7.2
2017-Dec-10 16:00N 36°52' W 076°19'4 1.6
2017-Dec-10 13:21N 36°56' W 076°20'3 8.3
2017-Dec-10 13:01N 36°53' W 076°20'4 7.7
2017-Dec-10 12:31N 36°50' W 076°18'3 6.3
2017-Dec-10 12:01N 36°47' W 076°18'0 0.0
2017-Dec-10 11:31N 36°47' W 076°18'0 0.0
2017-Dec-10 11:01N 36°47' W 076°18'1 2.8
2017-Dec-10 10:30N 36°48' W 076°18'0 0.3
2017-Dec-10 10:01N 36°48' W 076°18'0 0.2
2017-Dec-10 09:31N 36°48' W 076°18'0 0.0
2017-Dec-10 09:00N 36°48' W 076°18'0 0.0
2017-Dec-10 08:31N 36°48' W 076°18'0 0.0
2017-Dec-10 08:01N 36°48' W 076°18'0 0.0
2017-Dec-10 07:31N 36°48' W 076°18'0 0.0
2017-Dec-10 07:01N 36°48' W 076°18'0 0.0
2017-Dec-10 06:31N 36°48' W 076°18'0 0.0
2017-Dec-10 06:00N 36°48' W 076°18'0 0.0
2017-Dec-10 05:30N 36°48' W 076°18'0 0.0
2017-Dec-10 05:01N 36°48' W 076°18'0 0.0
2017-Dec-10 04:31N 36°48' W 076°18'0 0.0
2017-Dec-10 04:00N 36°48' W 076°18'0 0.0
2017-Dec-10 03:30N 36°48' W 076°18'0 0.0
2017-Dec-10 03:01N 36°48' W 076°18'0 0.0
2017-Dec-10 02:31N 36°48' W 076°18'0 0.0
2017-Dec-10 02:01N 36°48' W 076°18'0 0.0
2017-Dec-10 01:30N 36°48' W 076°18'0 0.1
2017-Dec-10 01:01N 36°48' W 076°18'1 2.8
2017-Dec-10 00:31N 36°49' W 076°17'3 5.3
2017-Dec-09 23:58N 36°52' W 076°19'2 0.1
2017-Dec-08 05:50N 36°54' W 076°20'3 7.8
2017-Dec-08 05:30N 36°52' W 076°19'4 7.3
2017-Dec-08 05:00N 36°48' W 076°17'0 0.7
2017-Dec-08 04:30N 36°48' W 076°18'0 0.0
2017-Dec-08 04:00N 36°48' W 076°18'0 0.0
2017-Dec-08 03:30N 36°48' W 076°18'0 0.0
2017-Dec-08 03:00N 36°48' W 076°18'0 0.0
2017-Dec-08 02:30N 36°48' W 076°18'0 0.0
2017-Dec-08 02:00N 36°48' W 076°18'0 0.0
2017-Dec-08 01:30N 36°48' W 076°18'0 0.0
2017-Dec-08 01:00N 36°48' W 076°18'0 0.0
2017-Dec-08 00:30N 36°48' W 076°18'0 0.0
2017-Dec-08 00:00N 36°48' W 076°18'0 0.0
2017-Dec-07 23:30N 36°48' W 076°18'0 0.0
2017-Dec-07 23:00N 36°48' W 076°18'0 0.0
2017-Dec-07 22:30N 36°48' W 076°18'0 0.0
2017-Dec-07 22:00N 36°48' W 076°18'0 0.0
2017-Dec-07 21:30N 36°48' W 076°18'0 0.0
2017-Dec-07 21:00N 36°48' W 076°18'0 0.0
2017-Dec-07 20:30N 36°48' W 076°18'0 0.0
2017-Dec-07 20:00N 36°48' W 076°18'0 0.0
2017-Dec-07 19:30N 36°48' W 076°18'0 0.0
2017-Dec-07 19:00N 36°48' W 076°18'0 0.0
2017-Dec-07 18:30N 36°48' W 076°18'0 0.0
2017-Dec-07 18:00N 36°48' W 076°18'0 0.0
2017-Dec-07 17:30N 36°48' W 076°18'0 0.0
2017-Dec-07 17:00N 36°48' W 076°18'0 0.0
2017-Dec-07 16:30N 36°48' W 076°18'0 0.0
2017-Dec-07 16:00N 36°48' W 076°18'0 0.0
2017-Dec-07 15:30N 36°48' W 076°18'0 0.0
2017-Dec-07 15:00N 36°48' W 076°18'0 0.0
2017-Dec-07 14:30N 36°48' W 076°18'0 0.0
2017-Dec-07 14:00N 36°48' W 076°18'0 0.0
2017-Dec-07 13:30N 36°48' W 076°18'0 0.0
2017-Dec-07 13:00N 36°48' W 076°18'0 0.0
2017-Dec-07 12:30N 36°48' W 076°18'0 0.0
2017-Dec-07 12:00N 36°48' W 076°18'0 0.0
2017-Dec-07 11:30N 36°48' W 076°18'0 0.0
2017-Dec-07 11:00N 36°48' W 076°18'0 0.0
2017-Dec-07 10:30N 36°48' W 076°18'0 0.0
2017-Dec-07 10:00N 36°48' W 076°18'0 0.0
2017-Dec-07 09:30N 36°48' W 076°18'0 0.0
2017-Dec-07 09:00N 36°48' W 076°18'0 0.0
2017-Dec-07 08:30N 36°48' W 076°18'0 0.0
2017-Dec-07 08:00N 36°48' W 076°18'0 0.0
2017-Dec-07 07:30N 36°48' W 076°18'0 0.0
2017-Dec-07 07:00N 36°48' W 076°18'0 0.0
2017-Dec-07 06:30N 36°48' W 076°18'0 0.0
2017-Dec-07 06:00N 36°48' W 076°18'0 0.0
2017-Dec-07 05:30N 36°48' W 076°18'0 0.0
2017-Dec-07 05:00N 36°48' W 076°18'0 0.0
2017-Dec-07 04:30N 36°48' W 076°18'0 0.0
2017-Dec-07 04:00N 36°48' W 076°18'0 0.0
2017-Dec-07 03:30N 36°48' W 076°18'0 0.0
2017-Dec-07 03:00N 36°48' W 076°18'0 0.0
2017-Dec-07 02:30N 36°48' W 076°18'0 0.0
2017-Dec-07 02:00N 36°48' W 076°18'0 0.0
2017-Dec-07 01:30N 36°48' W 076°18'0 0.0
2017-Dec-07 01:00N 36°48' W 076°18'0 0.0
2017-Dec-07 00:30N 36°48' W 076°18'0 0.0
2017-Dec-07 00:00N 36°48' W 076°18'0 0.0
2017-Dec-06 23:30N 36°48' W 076°18'0 0.0
2017-Dec-06 23:00N 36°48' W 076°18'0 0.0
2017-Dec-06 22:30N 36°48' W 076°18'0 0.0
2017-Dec-06 22:00N 36°48' W 076°18'0 0.0
2017-Dec-06 21:30N 36°48' W 076°18'0 0.0
2017-Dec-06 21:00N 36°48' W 076°18'  
2017-Dec-02 04:04N 36°54' W 076°20'0 8.6
2017-Dec-02 04:00N 36°54' W 076°20'4 8.0
2017-Dec-02 03:30N 36°50' W 076°18'2 4.9
2017-Dec-02 03:00N 36°48' W 076°18'0 0.0
2017-Dec-02 02:30N 36°48' W 076°18'0 0.0
2017-Dec-02 02:00N 36°48' W 076°18'0 0.0
2017-Dec-02 01:30N 36°48' W 076°18'0 0.0
2017-Dec-02 01:00N 36°48' W 076°18'0 0.0
2017-Dec-02 00:30N 36°48' W 076°18'0 0.0
2017-Dec-02 00:00N 36°48' W 076°18'0 0.0
2017-Dec-01 23:30N 36°48' W 076°18'0 0.0
2017-Dec-01 23:00N 36°48' W 076°18'0 0.0
2017-Dec-01 22:30N 36°48' W 076°18'0 0.1
2017-Dec-01 22:00N 36°48' W 076°18'0 0.0
2017-Dec-01 21:30N 36°48' W 076°18'0 0.0
2017-Dec-01 21:00N 36°48' W 076°18'0 0.0
2017-Dec-01 20:30N 36°48' W 076°18'0 0.0
2017-Dec-01 20:00N 36°48' W 076°18'0 0.0
2017-Dec-01 19:30N 36°48' W 076°18'0 0.0
2017-Dec-01 19:00N 36°48' W 076°18'0 0.0
2017-Dec-01 18:30N 36°48' W 076°18'0 0.0
2017-Dec-01 18:00N 36°48' W 076°18'0 0.0
2017-Dec-01 17:30N 36°48' W 076°18'0 0.0
2017-Dec-01 17:00N 36°48' W 076°18'  

Dump ship's entire track history